createdAt,value
2019-03-03T00:02:14.881Z,23.03
2019-03-03T00:04:45.289Z,22.17
2019-03-03T00:07:15.625Z,23.93
2019-03-03T00:09:45.985Z,23.00
2019-03-03T00:12:16.400Z,22.90
2019-03-03T00:14:46.770Z,23.10
2019-03-03T00:17:17.173Z,23.97
2019-03-03T00:19:47.541Z,24.10
2019-03-03T00:22:17.935Z,24.87
2019-03-03T00:24:48.341Z,23.80
2019-03-03T00:27:18.693Z,26.50
2019-03-03T00:29:49.138Z,26.63
2019-03-03T00:32:19.509Z,26.30
2019-03-03T00:34:49.880Z,24.47
2019-03-03T00:37:25.722Z,26.07
2019-03-03T00:40:27.553Z,25.03
2019-03-03T00:43:03.862Z,24.30
2019-03-03T00:48:52.521Z,25.77
2019-03-03T00:51:40.324Z,26.00
2019-03-03T00:54:33.752Z,26.80
2019-03-03T00:57:10.851Z,27.70
2019-03-03T01:00:09.533Z,26.93
2019-03-03T01:02:56.365Z,27.33
2019-03-03T01:05:44.650Z,27.23
2019-03-03T01:08:29.573Z,27.43
2019-03-03T01:11:30.765Z,27.13
2019-03-03T01:14:13.036Z,27.63
2019-03-03T01:16:54.997Z,27.97
2019-03-03T01:19:31.390Z,27.33
2019-03-03T01:22:10.605Z,30.60
2019-03-03T01:24:58.189Z,29.80
2019-03-03T01:27:29.066Z,31.43
2019-03-03T01:29:59.590Z,32.40
2019-03-03T01:32:29.952Z,31.93
2019-03-03T01:35:00.345Z,32.27
2019-03-03T01:37:30.690Z,34.60
2019-03-03T01:40:01.059Z,35.00
2019-03-03T01:42:31.473Z,34.20
2019-03-03T01:45:01.913Z,35.50
2019-03-03T01:47:33.358Z,36.60
2019-03-03T01:50:03.769Z,35.77
2019-03-03T01:52:34.101Z,35.87
2019-03-03T01:55:05.133Z,36.53
2019-03-03T01:57:35.490Z,36.00
2019-03-03T02:00:20.742Z,37.73
2019-03-03T02:02:51.323Z,35.70
2019-03-03T02:05:21.789Z,34.60
2019-03-03T02:07:52.146Z,35.30
2019-03-03T02:10:23.730Z,36.77
2019-03-03T02:12:54.145Z,37.60
2019-03-03T02:15:25.146Z,35.87
2019-03-03T02:17:55.487Z,37.10
2019-03-03T02:20:26.010Z,35.80
2019-03-03T02:22:56.392Z,37.17
2019-03-03T02:25:26.739Z,35.13
2019-03-03T02:27:57.146Z,36.13
2019-03-03T02:30:27.602Z,35.60
2019-03-03T02:32:57.963Z,37.70
2019-03-03T02:35:28.363Z,37.80
2019-03-03T02:37:58.719Z,37.83
2019-03-03T02:40:29.170Z,37.53
2019-03-03T02:42:59.524Z,37.20
2019-03-03T02:45:30.027Z,39.90
2019-03-03T02:48:00.406Z,38.67
2019-03-03T02:50:30.867Z,39.77
2019-03-03T02:53:01.338Z,41.10
2019-03-03T02:55:31.721Z,38.33
2019-03-03T02:58:02.075Z,41.13
2019-03-03T03:00:32.468Z,39.40
2019-03-03T03:03:03.349Z,41.20
2019-03-03T03:05:51.517Z,40.73
2019-03-03T03:08:25.611Z,39.57
2019-03-03T03:11:02.720Z,40.63
2019-03-03T03:13:50.626Z,41.57
2019-03-03T03:16:27.336Z,40.60
2019-03-03T03:19:15.422Z,41.60
2019-03-03T03:21:50.305Z,39.40
2019-03-03T03:24:37.291Z,37.00
2019-03-03T03:27:29.598Z,39.97
2019-03-03T03:30:18.892Z,39.50
2019-03-03T03:33:11.013Z,40.17
2019-03-03T03:35:52.741Z,40.97
2019-03-03T03:38:36.958Z,40.47
2019-03-03T03:41:29.034Z,42.00
2019-03-03T03:44:21.393Z,42.40
2019-03-03T03:47:19.719Z,43.00
2019-03-03T03:49:58.797Z,40.30
2019-03-03T03:52:39.046Z,39.37
2019-03-03T03:55:35.495Z,40.67
2019-03-03T03:58:19.736Z,40.17
2019-03-03T04:01:10.657Z,38.50
2019-03-03T04:04:14.978Z,40.63
2019-03-03T04:07:04.312Z,40.30
2019-03-03T04:09:52.738Z,39.03
2019-03-03T04:12:54.494Z,37.57
2019-03-03T04:15:43.240Z,38.37
2019-03-03T04:18:35.371Z,39.63
2019-03-03T04:21:36.817Z,35.77
2019-03-03T04:24:26.176Z,38.80
2019-03-03T04:27:24.485Z,38.33
2019-03-03T04:29:59.319Z,39.57
2019-03-03T04:32:41.479Z,38.83
2019-03-03T04:35:31.178Z,30.80
2019-03-03T04:38:19.087Z,36.00
2019-03-03T04:41:14.414Z,35.87
2019-03-03T04:43:55.017Z,35.07
2019-03-03T04:46:44.333Z,32.13
2019-03-03T04:49:32.501Z,33.70
2019-03-03T04:52:21.849Z,30.90
2019-03-03T04:55:26.470Z,30.80
2019-03-03T04:58:24.589Z,29.17
2019-03-03T05:01:13.877Z,30.27
2019-03-03T05:03:54.441Z,29.20
2019-03-03T05:06:55.574Z,28.60
2019-03-03T05:09:57.305Z,27.67
2019-03-03T05:12:45.210Z,28.90
2019-03-03T05:15:32.606Z,28.67
2019-03-03T05:18:25.078Z,27.37
2019-03-03T05:20:55.456Z,28.70
2019-03-03T05:23:25.814Z,28.67
2019-03-03T05:25:56.632Z,27.87
2019-03-03T05:28:26.969Z,24.67
2019-03-03T05:30:57.357Z,26.97
2019-03-03T05:33:27.735Z,26.63
2019-03-03T05:35:58.162Z,26.30
2019-03-03T05:38:28.552Z,26.13
2019-03-03T05:40:58.907Z,24.23
2019-03-03T05:43:30.196Z,25.00
2019-03-03T05:46:00.783Z,24.90
2019-03-03T05:48:31.122Z,22.80
2019-03-03T05:51:01.498Z,22.20
2019-03-03T05:53:31.896Z,22.57
2019-03-03T05:56:02.358Z,21.87
2019-03-03T05:58:32.720Z,19.97
2019-03-03T06:01:03.358Z,20.53
2019-03-03T06:03:33.713Z,19.20
2019-03-03T06:06:04.201Z,18.53
2019-03-03T06:08:34.553Z,19.87
2019-03-03T06:11:04.961Z,19.33
2019-03-03T06:13:35.343Z,17.63
2019-03-03T06:16:05.700Z,18.33
2019-03-03T06:18:36.074Z,17.60
2019-03-03T06:21:06.413Z,17.80
2019-03-03T06:23:36.822Z,17.53
2019-03-03T06:26:07.178Z,16.70
2019-03-03T06:28:49.129Z,17.30
2019-03-03T06:31:19.493Z,17.63
2019-03-03T06:33:50.468Z,16.03
2019-03-03T06:36:20.838Z,16.50
2019-03-03T06:38:51.361Z,15.60
2019-03-03T06:41:21.714Z,15.70
2019-03-03T06:43:52.213Z,14.50
2019-03-03T06:46:22.573Z,15.13
2019-03-03T06:48:52.915Z,14.37
2019-03-03T06:51:23.299Z,15.27
2019-03-03T06:53:53.658Z,13.57
2019-03-03T06:56:24.094Z,13.47
2019-03-03T06:58:54.448Z,12.57
2019-03-03T07:01:24.866Z,12.30
2019-03-03T07:03:55.257Z,13.13
2019-03-03T07:06:25.641Z,12.63
2019-03-03T07:08:56.007Z,12.33
2019-03-03T07:11:26.375Z,11.80
2019-03-03T07:13:56.749Z,11.27
2019-03-03T07:16:27.148Z,10.37
2019-03-03T07:18:57.522Z,10.60
2019-03-03T07:21:27.870Z,9.63
2019-03-03T07:23:58.245Z,9.53
2019-03-03T07:26:28.589Z,9.23
2019-03-03T07:28:58.953Z,9.53
2019-03-03T07:31:29.290Z,8.87
2019-03-03T07:34:02.069Z,8.73
2019-03-03T07:36:33.084Z,7.93
2019-03-03T07:39:04.562Z,7.80
2019-03-03T07:41:35.776Z,7.03
2019-03-03T07:44:06.645Z,7.43
2019-03-03T07:46:36.991Z,7.87
2019-03-03T07:49:08.026Z,6.27
2019-03-03T07:51:40.340Z,6.73
2019-03-03T07:54:10.682Z,6.77
2019-03-03T07:56:41.072Z,7.27
2019-03-03T07:59:11.399Z,6.40
2019-03-03T08:01:41.798Z,6.43
2019-03-03T08:04:12.141Z,6.07
2019-03-03T08:06:42.550Z,5.97
2019-03-03T08:09:13.046Z,6.23
2019-03-03T08:11:43.881Z,6.33
2019-03-03T08:14:14.205Z,5.50
2019-03-03T08:16:44.649Z,5.27
2019-03-03T08:19:16.636Z,6.47
2019-03-03T08:21:47.098Z,5.90
2019-03-03T08:24:17.446Z,6.33
2019-03-03T08:26:47.821Z,4.63
2019-03-03T08:29:18.210Z,6.00
2019-03-03T08:31:48.552Z,5.20
2019-03-03T08:34:18.981Z,5.70
2019-03-03T08:36:49.477Z,5.73
2019-03-03T08:39:19.941Z,5.43
2019-03-03T08:41:54.918Z,4.93
2019-03-03T08:44:49.762Z,5.40
2019-03-03T08:47:35.149Z,5.30
2019-03-03T08:50:19.857Z,5.13
2019-03-03T08:53:02.815Z,5.17
2019-03-03T08:55:55.146Z,6.77
2019-03-03T08:58:45.747Z,5.37
2019-03-03T09:01:50.145Z,4.93
2019-03-03T09:04:31.578Z,5.07
2019-03-03T09:07:17.194Z,5.57
2019-03-03T09:10:09.212Z,5.83
2019-03-03T09:13:05.133Z,4.77
2019-03-03T09:15:49.145Z,5.10
2019-03-03T09:18:45.513Z,5.77
2019-03-03T09:21:34.795Z,5.07
2019-03-03T09:24:30.370Z,4.90
2019-03-03T09:27:15.039Z,3.73
2019-03-03T09:30:08.377Z,4.80
2019-03-03T09:33:03.102Z,5.60
2019-03-03T09:36:01.529Z,5.07
2019-03-03T09:38:49.522Z,4.83
2019-03-03T09:41:30.653Z,5.60
2019-03-03T09:44:11.173Z,5.53
2019-03-03T09:46:58.830Z,4.00
2019-03-03T09:49:42.325Z,5.07
2019-03-03T09:52:37.277Z,4.90
2019-03-03T09:55:30.290Z,5.10
2019-03-03T09:58:25.609Z,3.73
2019-03-03T10:01:10.986Z,4.83
2019-03-03T10:04:03.100Z,4.50
2019-03-03T10:06:46.141Z,4.70
2019-03-03T10:09:22.750Z,6.23
2019-03-03T10:11:58.167Z,6.23
2019-03-03T10:14:47.086Z,7.13
2019-03-03T10:17:54.858Z,5.10
2019-03-03T10:20:42.881Z,5.10
2019-03-03T10:23:30.641Z,6.47
2019-03-03T10:26:21.741Z,7.03
2019-03-03T10:29:11.443Z,13.70
2019-03-03T10:32:03.812Z,5.30
2019-03-03T10:34:53.150Z,5.37
2019-03-03T10:37:37.693Z,4.83
2019-03-03T10:40:27.390Z,5.00
2019-03-03T10:43:16.713Z,5.97
2019-03-03T10:46:10.024Z,5.13
2019-03-03T10:48:47.820Z,5.70
2019-03-03T10:51:34.999Z,6.00
2019-03-03T10:54:11.497Z,6.23
2019-03-03T10:57:06.565Z,6.03
2019-03-03T10:59:55.509Z,5.10
2019-03-03T11:02:42.064Z,5.60
2019-03-03T11:05:34.630Z,5.67
2019-03-03T11:08:36.073Z,4.80
2019-03-03T11:11:27.815Z,5.20
2019-03-03T11:14:36.348Z,5.20
2019-03-03T11:17:35.826Z,5.70
2019-03-03T11:20:24.306Z,5.27
2019-03-03T11:23:12.541Z,5.13
2019-03-03T11:26:13.918Z,4.97
2019-03-03T11:29:06.190Z,4.77
2019-03-03T11:32:04.377Z,4.90
2019-03-03T11:34:52.917Z,4.77
2019-03-03T11:37:42.210Z,5.50
2019-03-03T11:40:23.711Z,4.60
2019-03-03T11:43:03.738Z,4.77
2019-03-03T11:46:04.194Z,4.60
2019-03-03T11:49:07.089Z,4.60
2019-03-03T11:51:45.081Z,4.67
2019-03-03T11:54:26.033Z,4.60
2019-03-03T11:57:07.449Z,5.00
2019-03-03T11:59:51.370Z,5.47
2019-03-03T12:02:36.686Z,5.30
2019-03-03T12:05:17.839Z,5.40
2019-03-03T12:07:57.836Z,6.27
2019-03-03T12:10:56.533Z,6.83
2019-03-03T12:13:32.664Z,8.20
2019-03-03T12:16:24.787Z,5.87
2019-03-03T12:19:25.964Z,6.10
2019-03-03T12:22:03.295Z,6.17
2019-03-03T12:24:52.609Z,6.30
2019-03-03T12:27:40.416Z,6.50
2019-03-03T12:30:28.795Z,6.13
2019-03-03T12:33:17.058Z,6.17
2019-03-03T12:36:15.469Z,6.63
2019-03-03T12:38:57.190Z,6.57
2019-03-03T12:41:46.517Z,7.40
2019-03-03T12:44:22.616Z,7.07
2019-03-03T12:47:02.704Z,6.70
2019-03-03T12:50:01.268Z,4.97
2019-03-03T12:52:49.288Z,5.50
2019-03-03T12:55:40.811Z,6.00
2019-03-03T12:58:28.673Z,6.07
2019-03-03T13:01:17.845Z,6.80
2019-03-03T13:04:13.217Z,5.67
2019-03-03T13:07:05.536Z,5.20
2019-03-03T13:10:01.218Z,5.40
2019-03-03T13:12:54.485Z,5.70
2019-03-03T13:15:38.222Z,6.40
2019-03-03T13:18:19.474Z,7.83
2019-03-03T13:21:10.422Z,7.33
2019-03-03T13:23:59.134Z,7.63
2019-03-03T13:26:45.513Z,6.00
2019-03-03T13:29:46.825Z,7.57
2019-03-03T13:32:51.353Z,6.00
2019-03-03T13:35:43.409Z,6.63
2019-03-03T13:38:31.555Z,7.60
2019-03-03T13:41:12.257Z,6.87
2019-03-03T13:43:43.067Z,7.27
2019-03-03T13:46:13.724Z,7.40
2019-03-03T13:48:44.096Z,7.27
2019-03-03T13:51:14.849Z,6.20
2019-03-03T13:53:45.618Z,6.93
2019-03-03T13:56:15.999Z,6.63
2019-03-03T13:58:46.572Z,6.43
2019-03-03T14:01:16.933Z,6.47
2019-03-03T14:03:47.453Z,7.73
2019-03-03T14:06:17.829Z,7.00
2019-03-03T14:08:48.218Z,6.40
2019-03-03T14:11:27.653Z,6.70
2019-03-03T14:13:58.229Z,6.63
2019-03-03T14:16:28.678Z,5.70
2019-03-03T14:18:59.159Z,4.90
2019-03-03T14:21:29.534Z,4.73
2019-03-03T14:24:00.231Z,4.93
2019-03-03T14:26:30.621Z,4.90
2019-03-03T14:29:01.385Z,4.30
2019-03-03T14:31:31.765Z,4.33
2019-03-03T14:34:02.285Z,3.50
2019-03-03T14:36:32.637Z,3.17
2019-03-03T14:39:04.709Z,3.60
2019-03-03T14:41:36.253Z,3.13
2019-03-03T14:44:07.046Z,3.60
2019-03-03T14:46:37.418Z,3.27
2019-03-03T14:49:07.845Z,3.63
2019-03-03T14:51:38.530Z,3.30
2019-03-03T14:54:09.009Z,3.13
2019-03-03T14:56:39.739Z,4.00
2019-03-03T14:59:10.240Z,2.87
2019-03-03T15:01:40.590Z,3.30
2019-03-03T15:04:11.125Z,3.73
2019-03-03T15:06:41.857Z,4.13
2019-03-03T15:09:31.394Z,4.60
2019-03-03T15:12:02.131Z,5.77
2019-03-03T15:14:32.694Z,6.03
2019-03-03T15:17:03.054Z,7.63
2019-03-03T15:19:33.537Z,7.37
2019-03-03T15:22:03.981Z,6.13
2019-03-03T15:24:35.290Z,8.23
2019-03-03T15:27:05.662Z,7.03
2019-03-03T15:29:36.119Z,7.13
2019-03-03T15:32:06.821Z,7.70
2019-03-03T15:34:37.306Z,8.23
2019-03-03T15:37:12.234Z,7.50
2019-03-03T15:39:42.609Z,7.63
2019-03-03T15:42:13.042Z,7.67
2019-03-03T15:44:43.477Z,8.87
2019-03-03T15:47:13.909Z,8.60
2019-03-03T15:49:44.302Z,7.53
2019-03-03T15:52:14.653Z,8.43
2019-03-03T15:54:45.446Z,9.30
2019-03-03T15:57:15.795Z,8.13
2019-03-03T15:59:46.165Z,9.93
2019-03-03T16:02:16.521Z,9.90
2019-03-03T16:04:47.355Z,10.57
2019-03-03T16:07:17.686Z,7.53
2019-03-03T16:09:48.098Z,9.57
2019-03-03T16:12:18.541Z,9.63
2019-03-03T16:14:48.962Z,9.20
2019-03-03T16:17:19.310Z,8.67
2019-03-03T16:19:49.688Z,9.33
2019-03-03T16:22:20.114Z,9.37
2019-03-03T16:24:50.526Z,12.43
2019-03-03T16:27:20.885Z,8.17
2019-03-03T16:29:51.341Z,9.20
2019-03-03T16:32:21.740Z,9.23
2019-03-03T16:34:52.142Z,9.60
2019-03-03T16:37:22.474Z,8.17
2019-03-03T16:39:52.884Z,10.20
2019-03-03T16:42:23.234Z,9.73
2019-03-03T16:44:53.605Z,9.37
2019-03-03T16:47:24.042Z,9.63
2019-03-03T16:49:54.413Z,8.97
2019-03-03T16:52:24.794Z,22.73
2019-03-03T16:54:55.703Z,43.57
2019-03-03T16:57:26.433Z,19.73
2019-03-03T16:59:56.839Z,15.10
2019-03-03T17:02:28.257Z,23.07
2019-03-03T17:04:58.656Z,12.70
2019-03-03T17:07:29.010Z,10.17
2019-03-03T17:10:01.521Z,10.30
2019-03-03T17:12:33.178Z,12.47
2019-03-03T17:15:03.597Z,9.03
2019-03-03T17:17:35.022Z,10.40
2019-03-03T17:20:06.551Z,11.93
2019-03-03T17:22:36.961Z,29.93
2019-03-03T17:25:10.246Z,13.93
2019-03-03T17:27:40.609Z,28.47
2019-03-03T17:30:13.909Z,11.00
2019-03-03T17:32:44.674Z,15.73
2019-03-03T17:35:15.138Z,10.17
2019-03-03T17:37:45.491Z,12.43
2019-03-03T17:40:17.691Z,12.00
2019-03-03T17:42:48.233Z,15.53
2019-03-03T17:45:20.004Z,16.13
2019-03-03T17:47:50.458Z,12.60
2019-03-03T17:50:21.660Z,14.90
2019-03-03T17:52:52.134Z,9.83
2019-03-03T17:55:22.586Z,14.57
2019-03-03T17:57:53.141Z,10.90
2019-03-03T18:00:25.852Z,11.57
2019-03-03T18:02:56.646Z,10.57
2019-03-03T18:05:27.124Z,13.67
2019-03-03T18:07:57.528Z,11.30
2019-03-03T18:10:27.970Z,11.83
2019-03-03T18:12:58.650Z,11.03
2019-03-03T18:15:29.454Z,10.17
2019-03-03T18:17:59.806Z,12.57
2019-03-03T18:20:30.541Z,11.40
2019-03-03T18:23:00.930Z,9.50
2019-03-03T18:25:31.316Z,9.40
2019-03-03T18:28:01.674Z,14.57
2019-03-03T18:30:32.062Z,11.73
2019-03-03T18:33:02.600Z,15.13
2019-03-03T18:35:32.976Z,12.63
2019-03-03T18:38:03.327Z,10.53
2019-03-03T18:40:33.725Z,9.07
2019-03-03T18:43:04.265Z,12.13
2019-03-03T18:45:34.759Z,9.20
2019-03-03T18:48:05.247Z,7.87
2019-03-03T18:50:35.654Z,8.93
2019-03-03T18:53:07.134Z,7.57
2019-03-03T18:55:37.475Z,9.10
2019-03-03T18:58:08.309Z,9.07
2019-03-03T19:00:38.661Z,8.33
2019-03-03T19:03:09.186Z,8.63
2019-03-03T19:05:39.607Z,9.23
2019-03-03T19:08:10.082Z,8.30
2019-03-03T19:10:40.481Z,8.30
2019-03-03T19:13:11.037Z,8.10
2019-03-03T19:15:41.750Z,9.90
2019-03-03T19:18:13.202Z,10.87
2019-03-03T19:20:43.558Z,9.60
2019-03-03T19:23:13.938Z,24.60
2019-03-03T19:25:44.281Z,21.37
2019-03-03T19:28:14.667Z,18.20
2019-03-03T19:30:45.033Z,21.27
2019-03-03T19:33:22.298Z,17.90
2019-03-03T19:35:53.737Z,18.53
2019-03-03T19:38:24.326Z,8.50
2019-03-03T19:40:54.708Z,9.90
2019-03-03T19:43:25.195Z,8.90
2019-03-03T19:45:55.645Z,9.83
2019-03-03T19:48:26.172Z,8.57
2019-03-03T19:50:56.542Z,8.80
2019-03-03T19:53:27.912Z,6.97
2019-03-03T19:55:58.192Z,7.37
2019-03-03T19:58:28.593Z,9.07
2019-03-03T20:00:58.936Z,9.20
2019-03-03T20:03:29.645Z,7.37
2019-03-03T20:06:00.021Z,7.23
2019-03-03T20:08:30.391Z,6.90
2019-03-03T20:11:00.782Z,8.87
2019-03-03T20:13:31.329Z,8.73
2019-03-03T20:16:01.741Z,11.17
2019-03-03T20:18:32.377Z,10.73
2019-03-03T20:21:02.778Z,10.97
2019-03-03T20:23:33.197Z,9.43
2019-03-03T20:26:03.660Z,7.47
2019-03-03T20:28:35.081Z,6.43
2019-03-03T20:31:05.734Z,6.57
2019-03-03T20:33:36.269Z,7.10
2019-03-03T20:36:06.737Z,6.60
2019-03-03T20:38:38.581Z,5.70
2019-03-03T20:41:09.101Z,6.13
2019-03-03T20:43:39.485Z,6.30
2019-03-03T20:46:09.963Z,6.07
2019-03-03T20:48:40.304Z,6.47
2019-03-03T20:51:10.691Z,7.27
2019-03-03T20:53:41.142Z,6.30
2019-03-03T20:56:11.634Z,6.53
2019-03-03T20:58:41.973Z,5.40
2019-03-03T21:01:12.349Z,4.67
2019-03-03T21:03:42.689Z,4.73
2019-03-03T21:06:13.070Z,5.60
2019-03-03T21:08:43.413Z,6.17
2019-03-03T21:11:13.790Z,5.80
2019-03-03T21:13:44.458Z,5.73
2019-03-03T21:16:14.866Z,7.27
2019-03-03T21:18:45.226Z,7.30
2019-03-03T21:21:15.606Z,5.43
2019-03-03T21:23:45.979Z,6.27
2019-03-03T21:26:16.386Z,6.67
2019-03-03T21:28:46.757Z,6.17
2019-03-03T21:31:17.273Z,5.43
2019-03-03T21:33:47.677Z,5.30
2019-03-03T21:36:18.132Z,6.20
2019-03-03T21:38:48.501Z,7.70
2019-03-03T21:41:19.086Z,5.70
2019-03-03T21:43:49.454Z,5.77
2019-03-03T21:46:19.847Z,6.10
2019-03-03T21:48:50.253Z,5.80
2019-03-03T21:51:20.648Z,5.60
2019-03-03T21:53:51.007Z,5.50
2019-03-03T21:56:21.362Z,5.73
2019-03-03T21:58:51.746Z,5.33
2019-03-03T22:01:22.080Z,6.20
2019-03-03T22:03:52.486Z,6.47
2019-03-03T22:06:22.902Z,5.17
2019-03-03T22:08:53.269Z,6.57
2019-03-03T22:11:23.609Z,5.53
2019-03-03T22:13:54.005Z,5.83
2019-03-03T22:16:24.374Z,6.07
2019-03-03T22:18:54.797Z,5.60
2019-03-03T22:21:25.227Z,6.23
2019-03-03T22:23:55.611Z,6.77
2019-03-03T22:26:25.993Z,6.87
2019-03-03T22:28:56.341Z,6.40
2019-03-03T22:31:26.819Z,6.30
2019-03-03T22:33:57.266Z,5.80
2019-03-03T22:36:27.654Z,6.87
2019-03-03T22:38:58.029Z,11.50
2019-03-03T22:41:28.357Z,6.13
2019-03-03T22:43:58.728Z,9.10
2019-03-03T22:46:29.071Z,7.03
2019-03-03T22:48:59.498Z,6.07
2019-03-03T22:51:29.846Z,7.07
2019-03-03T22:54:00.246Z,6.20
2019-03-03T22:56:30.615Z,5.57
2019-03-03T22:59:01.001Z,6.13
2019-03-03T23:01:39.397Z,6.07
2019-03-03T23:04:18.237Z,5.13
2019-03-03T23:07:11.434Z,5.47
2019-03-03T23:10:17.581Z,5.20
2019-03-03T23:13:25.706Z,5.70
2019-03-03T23:16:31.856Z,6.00
2019-03-03T23:19:38.209Z,5.17
2019-03-03T23:22:41.729Z,5.37
2019-03-03T23:25:29.871Z,5.67
2019-03-03T23:28:00.238Z,5.40
2019-03-03T23:30:30.589Z,6.10
2019-03-03T23:33:00.958Z,5.60
2019-03-03T23:35:31.337Z,5.23
2019-03-03T23:38:03.317Z,4.57
2019-03-03T23:40:33.662Z,4.87
2019-03-03T23:43:04.245Z,4.40
2019-03-03T23:45:34.658Z,4.63
2019-03-03T23:48:05.117Z,5.00
2019-03-03T23:50:35.466Z,4.87
2019-03-03T23:53:05.861Z,4.50
2019-03-03T23:55:36.221Z,4.60
2019-03-03T23:58:06.582Z,5.07
